St Lucie County International Airport
KFPR : now visible

Airfield :











YOU CAN JOIN US ON...

 
LOGIN :

Register | Disclaimer

   EN    FR    IT 

 









Legend :    VFR   Marginal VFR   IFR   Intensive IFR   Very Intensive IFR
Visi :
Ceiling :
>= 8 km
>= 3000ft
5 to 8 km
1000 to 3000 ft
1500m to 5 km
500 to 1000 ft
800 to 1500m
200 to 500 ft
< 800m
< 200 ft
Symbols :   Thunderstorms  Fog  Heavy snow  Heavy precipitations  Wind > 20 kt






- Airport Elevation : 24 ft
- IATA code : FPR


KFPR - St Lucie County International

CURRENT METAR :
  • 291453Z 09009KT 10SM CLR 23/15 A2996 RMK AO2 SLP146 T02280150 50003

EXPIRED METARs :
  • 291353Z 01004KT 10SM CLR 20/14 A2998 RMK AO2 SLP152 T02000144
  • 291253Z 00000KT 10SM BKN046 14/12 A2997 RMK AO2 SLP149 T01440122
  • 291153Z 34003KT 10SM FEW050 SCT060 15/12 A2996 RMK AO2 SLP143 T01500122 10161 20133 53004

TAF KFPR
Valid from the 29 at 12:00 until the 30 at 12:00 UTC


291120Z 2912/3012 35004KT P6SM BKN045 OVC060
FM291500 09009KT P6SM SCT035 BKN050
FM291700 12009KT P6SM SCT035 BKN045
FM300000 VRB04KT P6SM SCT025 BKN045
FM300500 VRB04KT P6SM VCSH SCT020 BKN035



MET'MAP, your aeronautical weather chart ! - Copyright ORBIFLY December 2007 - Disclaimer

ORBIFLY MET'MAP TEAM :

Programming & Development : Alexandra Zaïnal
Concept & original design : Baudouin d'Aumeries
Assistance for programming : Marc-Olivier Méhu
Technical & hardware support : Manuel Goepfert

Contact : metmap@orbifly.com




SOURCES & CREDITS :

   NOAA       Earth
Advisory